createdAt,value
2023-04-11T00:01:27.415Z,101152.75
2023-04-11T00:03:55.367Z,101137.47
2023-04-11T00:06:23.285Z,101143.50
2023-04-11T00:08:51.060Z,101141.41
2023-04-11T00:11:21.040Z,101135.53
2023-04-11T00:13:48.973Z,101123.28
2023-04-11T00:16:16.931Z,101111.94
2023-04-11T00:18:44.857Z,101116.06
2023-04-11T00:21:12.800Z,101109.78
2023-04-11T00:23:40.723Z,101110.50
2023-04-11T00:26:09.005Z,101105.41
2023-04-11T00:28:40.705Z,101115.72
2023-04-11T00:31:08.819Z,101109.38
2023-04-11T00:33:38.257Z,101097.66
2023-04-11T00:36:07.941Z,101093.34
2023-04-11T00:38:36.298Z,101090.91
2023-04-11T00:41:04.890Z,101076.69
2023-04-11T00:43:32.679Z,101073.22
2023-04-11T00:46:02.551Z,101066.00
2023-04-11T00:48:30.594Z,101069.16
2023-04-11T00:50:58.628Z,101071.34
2023-04-11T00:53:26.374Z,101059.63
2023-04-11T00:55:54.437Z,101056.34
2023-04-11T00:58:22.368Z,101049.47
2023-04-11T01:00:51.613Z,101058.03
2023-04-11T01:03:21.705Z,101050.50
2023-04-11T01:05:53.888Z,101040.38
2023-04-11T01:08:22.349Z,101043.22
2023-04-11T01:10:51.165Z,101029.56
2023-04-11T01:13:21.296Z,101038.78
2023-04-11T01:15:49.098Z,101027.94
2023-04-11T01:18:17.202Z,101023.75
2023-04-11T01:20:46.364Z,101007.22
2023-04-11T01:23:16.202Z,100997.31
2023-04-11T01:25:45.506Z,100988.34
2023-04-11T01:28:14.173Z,101001.50
2023-04-11T01:30:42.070Z,100993.84
2023-04-11T01:33:10.805Z,100988.25
2023-04-11T01:35:39.196Z,100984.78
2023-04-11T01:38:07.369Z,100980.69
2023-04-11T01:40:35.869Z,100982.16
2023-04-11T01:43:08.178Z,100976.63
2023-04-11T01:45:36.644Z,100969.97
2023-04-11T01:48:08.421Z,100957.69
2023-04-11T01:50:36.380Z,100963.91
2023-04-11T01:53:05.616Z,100959.03
2023-04-11T01:55:33.577Z,100958.22
2023-04-11T01:58:01.380Z,100965.47
2023-04-11T02:00:32.427Z,100967.81
2023-04-11T02:03:00.376Z,100976.06
2023-04-11T02:05:28.189Z,100973.78
2023-04-11T02:07:56.913Z,100966.22
2023-04-11T02:10:24.753Z,100978.50
2023-04-11T02:12:52.483Z,100975.72
2023-04-11T02:15:20.605Z,100978.59
2023-04-11T02:17:53.907Z,100983.00
2023-04-11T02:20:23.330Z,100981.09
2023-04-11T02:22:51.090Z,100973.41
2023-04-11T02:25:18.988Z,100961.28
2023-04-11T02:27:46.695Z,100962.91
2023-04-11T02:30:14.540Z,100958.00
2023-04-11T02:32:42.368Z,100961.75
2023-04-11T02:35:11.888Z,100956.09
2023-04-11T02:37:42.113Z,100937.25
2023-04-11T02:40:10.931Z,100950.91
2023-04-11T02:42:40.632Z,100949.94
2023-04-11T02:45:09.807Z,100951.94
2023-04-11T02:47:37.592Z,100944.75
2023-04-11T02:50:09.121Z,100952.03
2023-04-11T02:52:47.647Z,100945.00
2023-04-11T02:55:16.468Z,100951.34
2023-04-11T02:57:44.198Z,100957.91
2023-04-11T03:00:15.160Z,100959.69
2023-04-11T03:02:49.089Z,100972.91
2023-04-11T03:05:21.101Z,100956.16
2023-04-11T03:07:52.638Z,100963.25
2023-04-11T03:10:20.933Z,100958.47
2023-04-11T03:12:48.898Z,100959.00
2023-04-11T03:15:17.641Z,100958.19
2023-04-11T03:17:45.661Z,100953.59
2023-04-11T03:20:19.866Z,100945.00
2023-04-11T03:22:54.148Z,100940.28
2023-04-11T03:25:22.574Z,100937.25
2023-04-11T03:27:52.201Z,100930.19
2023-04-11T03:30:20.014Z,100925.88
2023-04-11T03:32:49.291Z,100934.50
2023-04-11T03:35:20.489Z,100930.97
2023-04-11T03:37:50.497Z,100933.56
2023-04-11T03:40:20.825Z,100937.28
2023-04-11T03:43:04.377Z,100936.88
2023-04-11T03:45:34.735Z,100935.00
2023-04-11T03:48:06.522Z,100944.78
2023-04-11T03:50:52.390Z,100942.28
2023-04-11T03:53:26.204Z,100954.63
2023-04-11T03:55:59.167Z,100959.47
2023-04-11T03:58:34.332Z,100956.91
2023-04-11T04:01:02.675Z,100962.31
2023-04-11T04:03:32.587Z,100966.25
2023-04-11T04:06:01.433Z,100968.78
2023-04-11T04:08:29.837Z,100970.38
2023-04-11T04:10:59.222Z,100974.41
2023-04-11T04:13:28.483Z,100969.81
2023-04-11T04:16:07.014Z,100976.13
2023-04-11T04:18:34.830Z,100987.09
2023-04-11T04:21:03.014Z,100978.13
2023-04-11T04:23:32.473Z,100977.59
2023-04-11T04:26:24.909Z,100978.84
2023-04-11T04:29:05.397Z,100977.56
2023-04-11T04:31:50.568Z,100973.31
2023-04-11T04:34:22.012Z,100996.28
2023-04-11T04:36:56.431Z,100998.66
2023-04-11T04:39:34.019Z,101003.94
2023-04-11T04:42:04.368Z,101002.28
2023-04-11T04:44:38.268Z,101012.03
2023-04-11T04:47:14.118Z,101010.78
2023-04-11T04:49:42.763Z,101010.84
2023-04-11T04:52:10.564Z,101015.59
2023-04-11T04:54:38.359Z,101024.31
2023-04-11T04:57:07.836Z,101032.53
2023-04-11T04:59:41.286Z,101032.28
2023-04-11T05:02:13.556Z,101038.94
2023-04-11T05:04:42.542Z,101043.75
2023-04-11T05:07:13.884Z,101033.09
2023-04-11T05:09:41.824Z,101037.63
2023-04-11T05:12:27.107Z,101041.69
2023-04-11T05:14:59.604Z,101041.25
2023-04-11T05:17:31.249Z,101040.75
2023-04-11T05:19:59.210Z,101046.63
2023-04-11T05:22:28.332Z,101049.25
2023-04-11T05:24:58.025Z,101049.19
2023-04-11T05:27:27.410Z,101050.44
2023-04-11T05:29:55.936Z,101051.06
2023-04-11T05:32:23.811Z,101043.56
2023-04-11T05:34:55.830Z,101038.97
2023-04-11T05:37:32.734Z,101046.72
2023-04-11T05:40:00.663Z,101041.09
2023-04-11T05:42:29.928Z,101046.88
2023-04-11T05:45:00.465Z,101051.53
2023-04-11T05:47:29.095Z,101067.16
2023-04-11T05:49:56.893Z,101071.34
2023-04-11T05:52:24.752Z,101079.00
2023-04-11T05:54:52.447Z,101093.63
2023-04-11T05:57:20.957Z,101095.84
2023-04-11T05:59:53.044Z,101090.56
2023-04-11T06:02:21.579Z,101098.63
2023-04-11T06:04:49.495Z,101100.31
2023-04-11T06:07:17.344Z,101102.94
2023-04-11T06:09:46.341Z,101098.75
2023-04-11T06:12:14.138Z,101101.38
2023-04-11T06:14:42.126Z,101103.34
2023-04-11T06:17:11.403Z,101098.22
2023-04-11T06:19:39.380Z,101097.13
2023-04-11T06:22:07.069Z,101099.00
2023-04-11T06:24:39.274Z,101090.72
2023-04-11T06:27:09.989Z,101098.00
2023-04-11T06:29:38.429Z,101097.81
2023-04-11T06:32:07.189Z,101114.63
2023-04-11T06:34:36.542Z,101106.16
2023-04-11T06:37:04.285Z,101102.25
2023-04-11T06:39:32.032Z,101099.03
2023-04-11T06:41:59.854Z,101098.91
2023-04-11T06:44:28.102Z,101105.88
2023-04-11T06:46:56.742Z,101109.41
2023-04-11T06:49:25.076Z,101107.50
2023-04-11T06:51:54.750Z,101127.16
2023-04-11T06:54:23.505Z,101121.78
2023-04-11T06:56:51.621Z,101134.13
2023-04-11T06:59:20.563Z,101133.34
2023-04-11T07:01:49.720Z,101134.19
2023-04-11T07:04:18.117Z,101131.09
2023-04-11T07:06:46.341Z,101139.56
2023-04-11T07:09:15.557Z,101141.91
2023-04-11T07:11:43.322Z,101145.38
2023-04-11T07:14:11.150Z,101141.72
2023-04-11T07:16:38.985Z,101146.50
2023-04-11T07:19:06.966Z,101144.19
2023-04-11T07:21:34.831Z,101152.03
2023-04-11T07:24:03.013Z,101149.50
2023-04-11T07:26:33.009Z,101152.50
2023-04-11T07:29:00.893Z,101143.81
2023-04-11T07:31:28.721Z,101152.47
2023-04-11T07:33:56.845Z,101149.19
2023-04-11T07:36:24.842Z,101148.41
2023-04-11T07:38:53.192Z,101140.63
2023-04-11T07:41:20.997Z,101156.19
2023-04-11T07:43:50.261Z,101157.84
2023-04-11T07:46:18.071Z,101148.88
2023-04-11T07:48:45.983Z,101146.00
2023-04-11T07:51:13.888Z,101130.94
2023-04-11T07:53:41.656Z,101133.28
2023-04-11T07:56:10.383Z,101129.16
2023-04-11T07:58:38.267Z,101129.75
2023-04-11T08:01:09.398Z,101126.94
2023-04-11T08:03:37.291Z,101125.47
2023-04-11T08:06:05.619Z,101126.63
2023-04-11T08:08:33.484Z,101130.72
2023-04-11T08:11:01.370Z,101132.34
2023-04-11T08:13:29.176Z,101137.00
2023-04-11T08:15:56.944Z,101135.78
2023-04-11T08:18:26.321Z,101131.09
2023-04-11T08:20:54.214Z,101132.28
2023-04-11T08:23:22.763Z,101132.66
2023-04-11T08:25:50.799Z,101136.97
2023-04-11T08:28:18.594Z,101135.00
2023-04-11T08:30:46.383Z,101139.78
2023-04-11T08:33:15.174Z,101141.34
2023-04-11T08:35:44.409Z,101139.44
2023-04-11T08:38:12.272Z,101134.81
2023-04-11T08:40:40.005Z,101138.25
2023-04-11T08:43:12.127Z,101142.59
2023-04-11T08:45:40.972Z,101139.53
2023-04-11T08:48:09.340Z,101135.78
2023-04-11T08:50:37.281Z,101133.69
2023-04-11T08:53:08.316Z,101133.72
2023-04-11T08:55:37.353Z,101148.53
2023-04-11T08:58:05.814Z,101143.22
2023-04-11T09:00:33.808Z,101152.75
2023-04-11T09:03:03.568Z,101155.78
2023-04-11T09:05:33.617Z,101153.44
2023-04-11T09:08:04.320Z,101143.09
2023-04-11T09:10:33.915Z,101146.09
2023-04-11T09:13:03.345Z,101140.28
2023-04-11T09:15:32.772Z,101148.28
2023-04-11T09:18:01.248Z,101137.22
2023-04-11T09:20:31.159Z,101139.19
2023-04-11T09:22:59.935Z,101141.31
2023-04-11T09:25:28.622Z,101143.59
2023-04-11T09:28:10.582Z,101135.91
2023-04-11T09:30:38.605Z,101145.38
2023-04-11T09:33:22.575Z,101132.56
2023-04-11T09:35:52.199Z,101137.75
2023-04-11T09:38:30.749Z,101139.16
2023-04-11T09:40:59.881Z,101140.53
2023-04-11T09:43:29.903Z,101134.25
2023-04-11T09:46:10.654Z,101113.72
2023-04-11T09:48:46.419Z,101108.56
2023-04-11T09:51:36.412Z,101096.25
2023-04-11T09:54:06.364Z,101087.59
2023-04-11T09:56:35.369Z,101098.84
2023-04-11T09:59:05.493Z,101110.75
2023-04-11T10:01:33.675Z,101111.81
2023-04-11T10:04:02.178Z,101111.72
2023-04-11T10:06:34.115Z,101112.91
2023-04-11T10:09:09.747Z,101106.25
2023-04-11T10:11:38.583Z,101096.50
2023-04-11T10:14:07.887Z,101104.84
2023-04-11T10:16:36.225Z,101105.59
2023-04-11T10:19:29.472Z,101113.63
2023-04-11T10:21:57.705Z,101119.84
2023-04-11T10:24:26.688Z,101114.84
2023-04-11T10:26:56.219Z,101110.66
2023-04-11T10:29:52.014Z,101110.78
2023-04-11T10:32:22.531Z,101104.06
2023-04-11T10:35:22.428Z,101108.75
2023-04-11T10:37:50.498Z,101103.56
2023-04-11T10:40:20.634Z,101102.84
2023-04-11T10:42:49.253Z,101098.56
2023-04-11T10:45:27.570Z,101084.22
2023-04-11T10:48:07.935Z,101086.63
2023-04-11T10:50:44.644Z,101090.00
2023-04-11T10:53:37.464Z,101107.91
2023-04-11T10:56:06.115Z,101100.72
2023-04-11T10:58:39.774Z,101097.06
2023-04-11T11:01:31.202Z,101094.56
2023-04-11T11:04:06.908Z,101093.91
2023-04-11T11:06:46.122Z,101082.88
2023-04-11T11:09:23.174Z,101091.59
2023-04-11T11:12:06.517Z,101095.44
2023-04-11T11:14:34.565Z,101119.25
2023-04-11T11:17:04.198Z,101120.78
2023-04-11T11:19:32.606Z,101128.31
2023-04-11T11:22:03.586Z,101144.00
2023-04-11T11:24:32.505Z,101159.78
2023-04-11T11:27:00.535Z,101165.47
2023-04-11T11:29:32.743Z,101160.41
2023-04-11T11:32:03.400Z,101161.19
2023-04-11T11:34:34.300Z,101151.19
2023-04-11T11:37:05.402Z,101143.84
2023-04-11T11:39:34.556Z,101122.56
2023-04-11T11:42:03.487Z,101097.75
2023-04-11T11:44:32.926Z,101092.00
2023-04-11T11:47:05.643Z,101085.69
2023-04-11T11:49:49.552Z,101072.81
2023-04-11T11:52:33.105Z,101083.94
2023-04-11T11:55:01.551Z,101071.56
2023-04-11T11:57:29.990Z,101055.47
2023-04-11T11:59:58.680Z,101050.03
2023-04-11T12:02:27.743Z,101037.78
2023-04-11T12:05:00.543Z,101044.94
2023-04-11T12:07:32.457Z,101045.44
2023-04-11T12:10:01.238Z,101040.28
2023-04-11T12:12:37.380Z,101028.44
2023-04-11T12:15:11.975Z,101033.13
2023-04-11T12:17:40.952Z,101031.09
2023-04-11T12:20:11.873Z,101053.59
2023-04-11T12:22:41.176Z,101055.94
2023-04-11T12:25:11.026Z,101045.97
2023-04-11T12:27:40.287Z,101062.44
2023-04-11T12:30:09.319Z,101068.56
2023-04-11T12:32:37.803Z,101056.91
2023-04-11T12:35:07.575Z,101036.13
2023-04-11T12:37:36.876Z,101031.78
2023-04-11T12:40:10.692Z,101024.00
2023-04-11T12:42:49.539Z,101026.97
2023-04-11T12:45:24.468Z,101021.81
2023-04-11T12:47:52.430Z,101013.78
2023-04-11T12:50:23.028Z,101053.53
2023-04-11T12:52:52.531Z,101041.38
2023-04-11T12:55:21.534Z,101038.31
2023-04-11T12:57:49.783Z,101047.34
2023-04-11T13:00:18.756Z,101048.56
2023-04-11T13:02:48.631Z,101058.00
2023-04-11T13:05:17.441Z,101065.13
2023-04-11T13:07:46.337Z,101050.25
2023-04-11T13:10:16.833Z,101045.03
2023-04-11T13:12:46.542Z,101038.94
2023-04-11T13:15:16.168Z,101048.03
2023-04-11T13:17:44.479Z,101049.13
2023-04-11T13:20:13.649Z,101047.16
2023-04-11T13:22:43.271Z,101028.06
2023-04-11T13:25:12.025Z,101041.69
2023-04-11T13:27:42.311Z,101035.69
2023-04-11T13:30:11.445Z,101059.53
2023-04-11T13:32:39.873Z,101058.00
2023-04-11T13:35:08.969Z,101058.34
2023-04-11T13:37:36.875Z,101046.34
2023-04-11T13:40:08.394Z,101050.69
2023-04-11T13:42:36.611Z,101064.09
2023-04-11T13:45:06.878Z,101071.94
2023-04-11T13:47:38.197Z,101063.06
2023-04-11T13:50:08.542Z,101056.34
2023-04-11T13:52:37.501Z,101042.31
2023-04-11T13:55:06.514Z,101060.34
2023-04-11T13:57:34.350Z,101082.47
2023-04-11T14:00:05.008Z,101073.13
2023-04-11T14:02:34.280Z,101068.38
2023-04-11T14:05:02.304Z,101079.25
2023-04-11T14:07:30.676Z,101081.41
2023-04-11T14:09:58.797Z,101082.16
2023-04-11T14:12:27.445Z,101068.47
2023-04-11T14:14:55.317Z,101061.66
2023-04-11T14:17:23.328Z,101057.75
2023-04-11T14:19:52.834Z,101048.50
2023-04-11T14:22:21.095Z,101062.50
2023-04-11T14:24:48.968Z,101017.81
2023-04-11T14:27:16.914Z,101020.94
2023-04-11T14:29:44.791Z,101028.69
2023-04-11T14:32:12.729Z,101033.56
2023-04-11T14:34:40.939Z,101037.03
2023-04-11T14:37:10.316Z,101049.75
2023-04-11T14:39:39.925Z,101051.13
2023-04-11T14:42:08.980Z,101030.16
2023-04-11T14:44:39.522Z,101027.75
2023-04-11T14:47:07.941Z,101037.22
2023-04-11T14:49:36.100Z,101027.56
2023-04-11T14:52:03.987Z,101028.03
2023-04-11T14:54:33.400Z,101036.69
2023-04-11T14:57:02.462Z,101034.09
2023-04-11T14:59:30.871Z,101028.22
2023-04-11T15:01:58.789Z,101030.91
2023-04-11T15:04:26.828Z,101029.84
2023-04-11T15:06:54.790Z,101027.34
2023-04-11T15:09:22.670Z,101042.78
2023-04-11T15:11:52.558Z,101042.13
2023-04-11T15:14:20.958Z,101046.16
2023-04-11T15:16:48.968Z,101048.66
2023-04-11T15:19:17.179Z,101044.44
2023-04-11T15:21:46.224Z,101037.03
2023-04-11T15:24:14.458Z,101033.88
2023-04-11T15:26:44.611Z,101034.63
2023-04-11T15:29:16.645Z,101033.59
2023-04-11T15:31:46.210Z,101029.88
2023-04-11T15:34:14.995Z,101046.41
2023-04-11T15:36:45.211Z,101049.91
2023-04-11T15:39:13.387Z,101053.41
2023-04-11T15:41:41.589Z,101056.03
2023-04-11T15:44:09.989Z,101064.94
2023-04-11T15:46:39.786Z,101050.81
2023-04-11T15:49:07.949Z,101042.34
2023-04-11T15:51:36.188Z,101048.66
2023-04-11T15:54:04.954Z,101063.81
2023-04-11T15:56:33.564Z,101057.00
2023-04-11T15:59:01.649Z,101060.47
2023-04-11T16:01:30.085Z,101052.22
2023-04-11T16:03:59.726Z,101042.88
2023-04-11T16:06:27.975Z,101034.31
2023-04-11T16:08:56.163Z,101041.38
2023-04-11T16:11:24.098Z,101033.47
2023-04-11T16:13:52.277Z,101033.78
2023-04-11T16:16:20.224Z,101034.44
2023-04-11T16:18:48.305Z,101024.31
2023-04-11T16:21:18.390Z,101021.31
2023-04-11T16:23:46.611Z,101015.75
2023-04-11T16:26:14.457Z,101019.03
2023-04-11T16:28:42.397Z,101014.38
2023-04-11T16:31:10.944Z,101010.66
2023-04-11T16:33:39.211Z,101012.59
2023-04-11T16:36:07.800Z,101007.88
2023-04-11T16:38:37.191Z,101008.94
2023-04-11T16:41:05.446Z,100997.53
2023-04-11T16:43:33.560Z,100986.78
2023-04-11T16:46:01.606Z,101002.00
2023-04-11T16:48:30.964Z,101005.91
2023-04-11T16:50:59.076Z,101003.53
2023-04-11T16:53:27.037Z,101015.00
2023-04-11T16:56:00.385Z,101005.78
2023-04-11T16:58:28.550Z,101010.56
2023-04-11T17:00:57.153Z,101004.84
2023-04-11T17:03:25.468Z,101009.16
2023-04-11T17:05:53.507Z,101015.25
2023-04-11T17:08:21.576Z,101004.91
2023-04-11T17:10:49.949Z,101009.81
2023-04-11T17:13:19.645Z,101011.09
2023-04-11T17:15:47.634Z,101012.41
2023-04-11T17:18:16.397Z,101013.72
2023-04-11T17:20:46.484Z,101011.41
2023-04-11T17:23:14.426Z,101013.22
2023-04-11T17:25:42.521Z,101013.44
2023-04-11T17:28:10.810Z,101010.09
2023-04-11T17:30:40.292Z,101014.91
2023-04-11T17:33:09.704Z,101013.69
2023-04-11T17:35:37.830Z,101004.53
2023-04-11T17:38:05.752Z,101019.22
2023-04-11T17:40:33.891Z,101008.63
2023-04-11T17:43:02.084Z,101010.13
2023-04-11T17:45:30.863Z,101010.97
2023-04-11T17:48:01.399Z,101007.41
2023-04-11T17:50:30.352Z,101026.69
2023-04-11T17:52:59.378Z,101020.78
2023-04-11T17:55:28.582Z,101020.09
2023-04-11T17:57:57.900Z,101007.59
2023-04-11T18:00:29.392Z,101018.09
2023-04-11T18:02:59.200Z,101018.56
2023-04-11T18:05:31.823Z,101022.22
2023-04-11T18:08:02.689Z,101027.91
2023-04-11T18:10:31.356Z,101030.75
2023-04-11T18:12:59.832Z,101031.16
2023-04-11T18:15:28.354Z,101036.75
2023-04-11T18:17:56.355Z,101021.31
2023-04-11T18:20:24.582Z,101025.16
2023-04-11T18:22:56.328Z,101035.59
2023-04-11T18:25:25.566Z,101031.28
2023-04-11T18:27:53.524Z,101029.09
2023-04-11T18:30:21.611Z,101024.94
2023-04-11T18:32:51.728Z,101029.75
2023-04-11T18:35:19.797Z,101023.94
2023-04-11T18:37:47.979Z,101028.78
2023-04-11T18:40:18.453Z,101026.66
2023-04-11T18:42:48.872Z,101021.63
2023-04-11T18:45:20.749Z,101030.50
2023-04-11T18:47:49.273Z,101029.25
2023-04-11T18:50:17.965Z,101031.66
2023-04-11T18:56:02.859Z,101033.84
2023-04-11T18:58:33.152Z,101028.19
2023-04-11T19:01:14.840Z,101033.94
2023-04-11T19:03:53.683Z,101028.91
2023-04-11T19:06:21.942Z,101025.03
2023-04-11T19:08:51.145Z,101028.06
2023-04-11T19:11:20.682Z,101041.31
2023-04-11T19:13:49.102Z,101035.16
2023-04-11T19:16:20.472Z,101033.16
2023-04-11T19:18:48.445Z,101035.16
2023-04-11T19:21:16.792Z,101029.00
2023-04-11T19:23:45.074Z,101025.22
2023-04-11T19:26:13.374Z,101018.28
2023-04-11T19:28:42.806Z,101021.13
2023-04-11T19:31:10.744Z,101020.59
2023-04-11T19:33:39.116Z,101016.47
2023-04-11T19:36:07.661Z,101026.28
2023-04-11T19:38:36.158Z,101011.09
2023-04-11T19:41:12.655Z,101011.06
2023-04-11T19:43:42.745Z,101016.13
2023-04-11T19:46:12.166Z,101013.69
2023-04-11T19:48:40.698Z,101012.28
2023-04-11T19:51:11.042Z,101006.78
2023-04-11T19:53:40.094Z,101010.00
2023-04-11T19:56:10.072Z,101007.59
2023-04-11T19:58:38.409Z,100997.50
2023-04-11T20:01:08.339Z,100991.78
2023-04-11T20:03:36.601Z,100983.47
2023-04-11T20:06:05.954Z,100978.78
2023-04-11T20:08:36.561Z,100974.34
2023-04-11T20:11:05.679Z,100970.50
2023-04-11T20:13:34.004Z,100971.53
2023-04-11T20:16:04.679Z,100962.41
2023-04-11T20:18:35.429Z,100951.22
2023-04-11T20:21:06.177Z,100950.50
2023-04-11T20:23:35.416Z,100943.59
2023-04-11T20:26:03.531Z,100935.66
2023-04-11T20:28:31.760Z,100935.66
2023-04-11T20:30:59.983Z,100931.78
2023-04-11T20:33:28.704Z,100926.28
2023-04-11T20:35:58.693Z,100919.28
2023-04-11T20:38:27.478Z,100909.00
2023-04-11T20:40:55.750Z,100905.91
2023-04-11T20:43:26.469Z,100919.91
2023-04-11T20:45:56.047Z,100912.88
2023-04-11T20:48:25.988Z,100904.78
2023-04-11T20:50:58.015Z,100895.78
2023-04-11T20:53:28.018Z,100898.59
2023-04-11T20:55:56.202Z,100905.91
2023-04-11T20:58:24.288Z,100898.94
2023-04-11T21:00:52.341Z,100890.06
2023-04-11T21:03:21.408Z,100889.38
2023-04-11T21:05:50.390Z,100885.72
2023-04-11T21:08:19.089Z,100879.84
2023-04-11T21:10:48.762Z,100876.00
2023-04-11T21:13:16.611Z,100882.94
2023-04-11T21:15:44.428Z,100879.31
2023-04-11T21:18:14.843Z,100869.66
2023-04-11T21:20:42.778Z,100866.84
2023-04-11T21:23:10.575Z,100853.25
2023-04-11T21:25:38.799Z,100857.31
2023-04-11T21:28:08.022Z,100850.72
2023-04-11T21:30:35.997Z,100844.47
2023-04-11T21:33:03.914Z,100836.53
2023-04-11T21:35:31.768Z,100839.75
2023-04-11T21:37:59.571Z,100833.19
2023-04-11T21:40:30.631Z,100829.13
2023-04-11T21:42:58.425Z,100837.34
2023-04-11T21:45:28.624Z,100827.50
2023-04-11T21:47:56.419Z,100824.09
2023-04-11T21:50:31.823Z,100823.16
2023-04-11T21:52:59.732Z,100819.19
2023-04-11T21:55:27.559Z,100810.34
2023-04-11T21:57:55.569Z,100801.47
2023-04-11T22:03:20.634Z,100791.41
2023-04-11T22:05:50.423Z,100788.75
2023-04-11T22:08:20.116Z,100779.38
2023-04-11T22:10:48.612Z,100770.31
2023-04-11T22:13:18.700Z,100770.22
2023-04-11T22:15:48.772Z,100766.09
2023-04-11T22:18:17.214Z,100775.34
2023-04-11T22:20:46.984Z,100767.78
2023-04-11T22:23:17.744Z,100765.88
2023-04-11T22:25:45.728Z,100765.09
2023-04-11T22:28:18.283Z,100769.72
2023-04-11T22:30:46.634Z,100749.59
2023-04-11T22:33:15.388Z,100754.91
2023-04-11T22:35:45.381Z,100751.97
2023-04-11T22:38:15.741Z,100742.53
2023-04-11T22:40:43.897Z,100738.38
2023-04-11T22:43:12.366Z,100726.28
2023-04-11T22:45:43.043Z,100726.28
2023-04-11T22:48:13.859Z,100730.41
2023-04-11T22:50:41.781Z,100722.69
2023-04-11T22:53:14.016Z,100713.97
2023-04-11T22:55:44.970Z,100704.56
2023-04-11T22:58:15.525Z,100693.91
2023-04-11T23:00:45.189Z,100693.97
2023-04-11T23:03:16.175Z,100692.81
2023-04-11T23:05:44.203Z,100686.66
2023-04-11T23:08:12.283Z,100679.72
2023-04-11T23:10:40.516Z,100678.66
2023-04-11T23:13:09.874Z,100678.72
2023-04-11T23:15:39.295Z,100679.53
2023-04-11T23:18:09.655Z,100679.53
2023-04-11T23:20:38.048Z,100673.16
2023-04-11T23:23:06.574Z,100667.59
2023-04-11T23:25:35.487Z,100654.09
2023-04-11T23:28:03.516Z,100641.56
2023-04-11T23:30:33.148Z,100643.66
2023-04-11T23:33:01.744Z,100641.53
2023-04-11T23:35:31.578Z,100634.19
2023-04-11T23:37:59.893Z,100629.19
2023-04-11T23:40:28.984Z,100628.81
2023-04-11T23:42:58.012Z,100626.56
2023-04-11T23:45:26.339Z,100631.50
2023-04-11T23:47:56.184Z,100634.59
2023-04-11T23:50:24.480Z,100622.66
2023-04-11T23:52:53.724Z,100611.75
2023-04-11T23:55:23.544Z,100620.22
2023-04-11T23:57:51.570Z,100615.75
